Terminal Aerodrome Forecast
Issued by NWS

Home | Current Version | Previous Version | Text Only | Print | Product List | Glossary On
Versions: 1 2 3 4 5 6 7 8 9 10 11 12 13 14
000
FTUS42 KMLB 010520
TAFSFB
TAF
KSFB 010520Z 0106/0206 18007KT P6SM BKN090 BKN250
     FM011500 22014G20KT P6SM VCTS SCT030CB BKN120
     FM020000 22007KT P6SM FEW025 BKN150 BKN250=

USA.gov is the U.S. government's official web portal to all federal, state and local government web resources and services.